sensor_id;sensor_type;location;lat;lon;timestamp;P1;durP1;ratioP1;P2;durP2;ratioP2
42714;SDS011;28351;51.480;5.706;2023-02-28T00:01:11;7.65;;;4.50;;
42714;SDS011;28351;51.480;5.706;2023-02-28T00:03:38;10.18;;;5.70;;
42714;SDS011;28351;51.480;5.706;2023-02-28T00:06:04;9.23;;;5.20;;
42714;SDS011;28351;51.480;5.706;2023-02-28T00:08:31;10.25;;;4.50;;
42714;SDS011;28351;51.480;5.706;2023-02-28T00:11:00;6.53;;;3.97;;
42714;SDS011;28351;51.480;5.706;2023-02-28T00:13:30;9.90;;;4.63;;
42714;SDS011;28351;51.480;5.706;2023-02-28T00:16:00;8.82;;;5.15;;
42714;SDS011;28351;51.480;5.706;2023-02-28T00:18:27;6.32;;;4.28;;
42714;SDS011;28351;51.480;5.706;2023-02-28T00:20:53;10.65;;;5.07;;
42714;SDS011;28351;51.480;5.706;2023-02-28T00:23:18;12.57;;;5.90;;
42714;SDS011;28351;51.480;5.706;2023-02-28T00:25:44;11.10;;;5.32;;
42714;SDS011;28351;51.480;5.706;2023-02-28T00:28:10;10.07;;;5.53;;
42714;SDS011;28351;51.480;5.706;2023-02-28T00:30:35;8.27;;;5.28;;
42714;SDS011;28351;51.480;5.706;2023-02-28T00:33:01;9.70;;;5.20;;
42714;SDS011;28351;51.480;5.706;2023-02-28T00:35:26;7.80;;;5.05;;
42714;SDS011;28351;51.480;5.706;2023-02-28T00:37:52;9.38;;;5.22;;
42714;SDS011;28351;51.480;5.706;2023-02-28T00:40:18;9.38;;;5.57;;
42714;SDS011;28351;51.480;5.706;2023-02-28T00:42:43;10.15;;;5.38;;
42714;SDS011;28351;51.480;5.706;2023-02-28T00:45:09;9.27;;;4.78;;
42714;SDS011;28351;51.480;5.706;2023-02-28T00:47:35;10.10;;;5.65;;
42714;SDS011;28351;51.480;5.706;2023-02-28T00:50:00;11.25;;;5.28;;
42714;SDS011;28351;51.480;5.706;2023-02-28T00:52:26;7.05;;;5.07;;
42714;SDS011;28351;51.480;5.706;2023-02-28T00:54:51;11.27;;;5.65;;
42714;SDS011;28351;51.480;5.706;2023-02-28T00:57:17;10.38;;;5.15;;
42714;SDS011;28351;51.480;5.706;2023-02-28T00:59:43;9.98;;;5.50;;
42714;SDS011;28351;51.480;5.706;2023-02-28T01:02:08;9.23;;;5.05;;
42714;SDS011;28351;51.480;5.706;2023-02-28T01:04:35;10.82;;;5.10;;
42714;SDS011;28351;51.480;5.706;2023-02-28T01:07:00;9.90;;;5.20;;
42714;SDS011;28351;51.480;5.706;2023-02-28T01:09:32;8.98;;;5.70;;
42714;SDS011;28351;51.480;5.706;2023-02-28T01:11:57;8.32;;;4.45;;
42714;SDS011;28351;51.480;5.706;2023-02-28T01:14:23;8.30;;;5.25;;
42714;SDS011;28351;51.480;5.706;2023-02-28T01:16:49;7.85;;;4.95;;
42714;SDS011;28351;51.480;5.706;2023-02-28T01:21:50;8.32;;;5.15;;
42714;SDS011;28351;51.480;5.706;2023-02-28T01:24:15;9.05;;;5.60;;
42714;SDS011;28351;51.480;5.706;2023-02-28T01:26:41;11.32;;;5.25;;
42714;SDS011;28351;51.480;5.706;2023-02-28T01:29:07;7.65;;;4.85;;
42714;SDS011;28351;51.480;5.706;2023-02-28T01:31:32;8.48;;;5.18;;
42714;SDS011;28351;51.480;5.706;2023-02-28T01:34:03;9.55;;;5.13;;
42714;SDS011;28351;51.480;5.706;2023-02-28T01:36:29;9.23;;;4.47;;
42714;SDS011;28351;51.480;5.706;2023-02-28T01:38:55;11.60;;;5.45;;
42714;SDS011;28351;51.480;5.706;2023-02-28T01:41:28;10.48;;;5.55;;
42714;SDS011;28351;51.480;5.706;2023-02-28T01:44:04;8.13;;;5.18;;
42714;SDS011;28351;51.480;5.706;2023-02-28T01:46:32;9.45;;;5.78;;
42714;SDS011;28351;51.480;5.706;2023-02-28T01:49:02;9.15;;;5.10;;
42714;SDS011;28351;51.480;5.706;2023-02-28T01:51:38;13.02;;;5.85;;
42714;SDS011;28351;51.480;5.706;2023-02-28T01:54:11;9.43;;;5.18;;
42714;SDS011;28351;51.480;5.706;2023-02-28T01:56:41;10.52;;;5.65;;
42714;SDS011;28351;51.480;5.706;2023-02-28T01:59:52;9.13;;;5.22;;
42714;SDS011;28351;51.480;5.706;2023-02-28T02:02:23;11.38;;;5.60;;
42714;SDS011;28351;51.480;5.706;2023-02-28T02:05:00;14.52;;;5.22;;
42714;SDS011;28351;51.480;5.706;2023-02-28T02:07:31;9.88;;;5.57;;
42714;SDS011;28351;51.480;5.706;2023-02-28T02:10:02;12.73;;;5.65;;
42714;SDS011;28351;51.480;5.706;2023-02-28T02:12:43;12.23;;;5.47;;
42714;SDS011;28351;51.480;5.706;2023-02-28T02:18:27;9.88;;;5.28;;
42714;SDS011;28351;51.480;5.706;2023-02-28T02:30:20;8.15;;;4.82;;
42714;SDS011;28351;51.480;5.706;2023-02-28T02:36:06;9.85;;;5.13;;
42714;SDS011;28351;51.480;5.706;2023-02-28T02:39:06;9.95;;;5.45;;
42714;SDS011;28351;51.480;5.706;2023-02-28T02:41:40;9.38;;;4.85;;
42714;SDS011;28351;51.480;5.706;2023-02-28T02:44:23;13.50;;;5.32;;
42714;SDS011;28351;51.480;5.706;2023-02-28T02:46:58;11.38;;;5.53;;
42714;SDS011;28351;51.480;5.706;2023-02-28T02:49:35;11.10;;;5.57;;
42714;SDS011;28351;51.480;5.706;2023-02-28T02:52:11;8.48;;;5.20;;
42714;SDS011;28351;51.480;5.706;2023-02-28T02:54:40;9.10;;;5.47;;
42714;SDS011;28351;51.480;5.706;2023-02-28T02:57:44;9.43;;;4.90;;
42714;SDS011;28351;51.480;5.706;2023-02-28T03:00:14;14.30;;;5.60;;
42714;SDS011;28351;51.480;5.706;2023-02-28T03:02:43;10.70;;;5.40;;
42714;SDS011;28351;51.480;5.706;2023-02-28T03:05:14;9.93;;;5.70;;
42714;SDS011;28351;51.480;5.706;2023-02-28T03:07:46;13.05;;;6.03;;
42714;SDS011;28351;51.480;5.706;2023-02-28T03:24:50;8.13;;;3.58;;
42714;SDS011;28351;51.480;5.706;2023-02-28T03:27:42;5.90;;;3.38;;
42714;SDS011;28351;51.480;5.706;2023-02-28T03:30:31;5.10;;;4.03;;
42714;SDS011;28351;51.480;5.706;2023-02-28T03:35:55;8.52;;;5.28;;
42714;SDS011;28351;51.480;5.706;2023-02-28T03:41:36;7.68;;;4.75;;
42714;SDS011;28351;51.480;5.706;2023-02-28T03:49:22;12.10;;;5.10;;
42714;SDS011;28351;51.480;5.706;2023-02-28T03:51:52;11.68;;;5.50;;
42714;SDS011;28351;51.480;5.706;2023-02-28T03:54:20;8.45;;;3.42;;
42714;SDS011;28351;51.480;5.706;2023-02-28T03:56:53;10.40;;;4.35;;
42714;SDS011;28351;51.480;5.706;2023-02-28T03:59:28;6.60;;;3.65;;
42714;SDS011;28351;51.480;5.706;2023-02-28T04:01:58;10.43;;;5.32;;
42714;SDS011;28351;51.480;5.706;2023-02-28T04:04:24;4.07;;;3.10;;
42714;SDS011;28351;51.480;5.706;2023-02-28T04:06:50;6.03;;;3.50;;
42714;SDS011;28351;51.480;5.706;2023-02-28T04:09:16;5.22;;;3.72;;
42714;SDS011;28351;51.480;5.706;2023-02-28T04:11:44;4.40;;;2.75;;
42714;SDS011;28351;51.480;5.706;2023-02-28T04:14:12;4.35;;;3.08;;
42714;SDS011;28351;51.480;5.706;2023-02-28T04:16:38;8.45;;;3.60;;
42714;SDS011;28351;51.480;5.706;2023-02-28T04:19:06;9.00;;;4.45;;
42714;SDS011;28351;51.480;5.706;2023-02-28T04:21:37;7.38;;;3.33;;
42714;SDS011;28351;51.480;5.706;2023-02-28T04:24:04;4.65;;;3.40;;
42714;SDS011;28351;51.480;5.706;2023-02-28T04:26:31;4.63;;;2.92;;
42714;SDS011;28351;51.480;5.706;2023-02-28T04:29:01;4.65;;;3.08;;
42714;SDS011;28351;51.480;5.706;2023-02-28T04:31:28;6.07;;;3.10;;
42714;SDS011;28351;51.480;5.706;2023-02-28T04:33:54;7.10;;;4.82;;
42714;SDS011;28351;51.480;5.706;2023-02-28T04:36:22;16.23;;;3.05;;
42714;SDS011;28351;51.480;5.706;2023-02-28T04:38:48;6.88;;;3.10;;
42714;SDS011;28351;51.480;5.706;2023-02-28T04:41:14;8.30;;;3.60;;
42714;SDS011;28351;51.480;5.706;2023-02-28T04:43:40;4.90;;;3.10;;
42714;SDS011;28351;51.480;5.706;2023-02-28T04:46:06;5.65;;;3.30;;
42714;SDS011;28351;51.480;5.706;2023-02-28T04:48:33;5.45;;;3.58;;
42714;SDS011;28351;51.480;5.706;2023-02-28T04:53:30;10.07;;;4.55;;
42714;SDS011;28351;51.480;5.706;2023-02-28T04:55:56;6.25;;;4.50;;
42714;SDS011;28351;51.480;5.706;2023-02-28T04:58:25;6.90;;;4.20;;
42714;SDS011;28351;51.480;5.706;2023-02-28T05:00:51;7.78;;;5.20;;
42714;SDS011;28351;51.480;5.706;2023-02-28T05:03:18;7.57;;;4.07;;
42714;SDS011;28351;51.480;5.706;2023-02-28T05:05:45;6.88;;;4.55;;
42714;SDS011;28351;51.480;5.706;2023-02-28T05:08:11;5.93;;;4.07;;
42714;SDS011;28351;51.480;5.706;2023-02-28T05:10:37;12.60;;;4.75;;
42714;SDS011;28351;51.480;5.706;2023-02-28T05:13:02;8.90;;;4.88;;
42714;SDS011;28351;51.480;5.706;2023-02-28T05:15:28;6.63;;;4.18;;
42714;SDS011;28351;51.480;5.706;2023-02-28T05:17:59;7.82;;;4.55;;
42714;SDS011;28351;51.480;5.706;2023-02-28T05:20:25;7.72;;;4.30;;
42714;SDS011;28351;51.480;5.706;2023-02-28T05:22:50;8.52;;;4.35;;
42714;SDS011;28351;51.480;5.706;2023-02-28T05:25:18;5.25;;;4.07;;
42714;SDS011;28351;51.480;5.706;2023-02-28T05:27:47;8.13;;;4.15;;
42714;SDS011;28351;51.480;5.706;2023-02-28T05:30:12;7.20;;;4.28;;
42714;SDS011;28351;51.480;5.706;2023-02-28T05:32:38;8.25;;;4.20;;
42714;SDS011;28351;51.480;5.706;2023-02-28T05:35:08;7.03;;;4.70;;
42714;SDS011;28351;51.480;5.706;2023-02-28T05:37:35;8.45;;;4.20;;
42714;SDS011;28351;51.480;5.706;2023-02-28T05:40:01;8.20;;;4.57;;
42714;SDS011;28351;51.480;5.706;2023-02-28T05:42:27;6.43;;;4.55;;
42714;SDS011;28351;51.480;5.706;2023-02-28T05:44:53;7.47;;;4.63;;
42714;SDS011;28351;51.480;5.706;2023-02-28T05:47:18;7.80;;;5.05;;
42714;SDS011;28351;51.480;5.706;2023-02-28T05:49:44;6.55;;;4.35;;
42714;SDS011;28351;51.480;5.706;2023-02-28T05:52:09;6.85;;;4.45;;
42714;SDS011;28351;51.480;5.706;2023-02-28T05:54:35;7.63;;;4.50;;
42714;SDS011;28351;51.480;5.706;2023-02-28T05:57:01;8.15;;;4.32;;
42714;SDS011;28351;51.480;5.706;2023-02-28T05:59:26;6.38;;;4.40;;
42714;SDS011;28351;51.480;5.706;2023-02-28T06:01:52;8.43;;;4.47;;
42714;SDS011;28351;51.480;5.706;2023-02-28T06:04:18;6.68;;;4.07;;
42714;SDS011;28351;51.480;5.706;2023-02-28T06:06:45;7.75;;;4.20;;
42714;SDS011;28351;51.480;5.706;2023-02-28T06:09:12;7.35;;;4.35;;
42714;SDS011;28351;51.480;5.706;2023-02-28T06:11:38;7.03;;;4.25;;
42714;SDS011;28351;51.480;5.706;2023-02-28T06:14:07;9.30;;;4.80;;
42714;SDS011;28351;51.480;5.706;2023-02-28T06:16:33;7.40;;;4.47;;
42714;SDS011;28351;51.480;5.706;2023-02-28T06:19:01;8.40;;;4.68;;
42714;SDS011;28351;51.480;5.706;2023-02-28T06:21:29;8.02;;;4.45;;
42714;SDS011;28351;51.480;5.706;2023-02-28T06:23:55;7.72;;;4.43;;
42714;SDS011;28351;51.480;5.706;2023-02-28T06:26:22;7.72;;;4.30;;
42714;SDS011;28351;51.480;5.706;2023-02-28T06:28:48;8.63;;;4.10;;
42714;SDS011;28351;51.480;5.706;2023-02-28T06:31:16;8.80;;;4.18;;
42714;SDS011;28351;51.480;5.706;2023-02-28T06:33:42;10.00;;;4.55;;
42714;SDS011;28351;51.480;5.706;2023-02-28T06:36:10;11.43;;;4.60;;
42714;SDS011;28351;51.480;5.706;2023-02-28T06:38:37;11.20;;;4.10;;
42714;SDS011;28351;51.480;5.706;2023-02-28T06:41:03;6.65;;;4.18;;
42714;SDS011;28351;51.480;5.706;2023-02-28T06:43:31;11.05;;;4.88;;
42714;SDS011;28351;51.480;5.706;2023-02-28T06:45:59;7.93;;;4.65;;
42714;SDS011;28351;51.480;5.706;2023-02-28T06:48:26;5.38;;;4.20;;
42714;SDS011;28351;51.480;5.706;2023-02-28T06:51:05;7.75;;;4.30;;
42714;SDS011;28351;51.480;5.706;2023-02-28T06:53:43;5.75;;;3.75;;
42714;SDS011;28351;51.480;5.706;2023-02-28T06:56:10;7.50;;;3.53;;
42714;SDS011;28351;51.480;5.706;2023-02-28T06:58:37;8.30;;;3.97;;
42714;SDS011;28351;51.480;5.706;2023-02-28T07:01:07;10.85;;;4.15;;
42714;SDS011;28351;51.480;5.706;2023-02-28T07:03:34;6.07;;;3.67;;
42714;SDS011;28351;51.480;5.706;2023-02-28T07:09:38;5.00;;;2.92;;
42714;SDS011;28351;51.480;5.706;2023-02-28T07:14:48;4.50;;;2.58;;
42714;SDS011;28351;51.480;5.706;2023-02-28T07:17:14;7.63;;;3.08;;
42714;SDS011;28351;51.480;5.706;2023-02-28T07:30:01;3.53;;;2.53;;
42714;SDS011;28351;51.480;5.706;2023-02-28T07:32:28;15.40;;;3.30;;
42714;SDS011;28351;51.480;5.706;2023-02-28T07:34:54;4.18;;;2.83;;
42714;SDS011;28351;51.480;5.706;2023-02-28T07:37:20;8.60;;;4.05;;
42714;SDS011;28351;51.480;5.706;2023-02-28T07:39:45;4.55;;;3.05;;
42714;SDS011;28351;51.480;5.706;2023-02-28T07:42:11;8.05;;;2.10;;
42714;SDS011;28351;51.480;5.706;2023-02-28T07:44:38;6.85;;;3.80;;
42714;SDS011;28351;51.480;5.706;2023-02-28T07:47:10;7.63;;;4.38;;
42714;SDS011;28351;51.480;5.706;2023-02-28T07:49:36;6.18;;;4.18;;
42714;SDS011;28351;51.480;5.706;2023-02-28T07:54:31;4.95;;;3.50;;
42714;SDS011;28351;51.480;5.706;2023-02-28T07:56:57;5.43;;;3.13;;
42714;SDS011;28351;51.480;5.706;2023-02-28T07:59:23;3.63;;;2.08;;
42714;SDS011;28351;51.480;5.706;2023-02-28T08:01:48;3.88;;;2.15;;
42714;SDS011;28351;51.480;5.706;2023-02-28T08:04:15;2.78;;;1.85;;
42714;SDS011;28351;51.480;5.706;2023-02-28T08:06:42;2.90;;;2.17;;
42714;SDS011;28351;51.480;5.706;2023-02-28T08:09:08;4.20;;;2.40;;
42714;SDS011;28351;51.480;5.706;2023-02-28T08:11:33;2.58;;;1.67;;
42714;SDS011;28351;51.480;5.706;2023-02-28T08:13:59;3.45;;;1.88;;
42714;SDS011;28351;51.480;5.706;2023-02-28T08:16:25;3.92;;;2.15;;
42714;SDS011;28351;51.480;5.706;2023-02-28T08:31:52;3.35;;;2.80;;
42714;SDS011;28351;51.480;5.706;2023-02-28T08:34:28;4.00;;;2.58;;
42714;SDS011;28351;51.480;5.706;2023-02-28T08:36:56;3.85;;;2.67;;
42714;SDS011;28351;51.480;5.706;2023-02-28T08:39:28;4.72;;;2.60;;
42714;SDS011;28351;51.480;5.706;2023-02-28T08:41:53;4.95;;;2.50;;
42714;SDS011;28351;51.480;5.706;2023-02-28T08:44:19;3.22;;;2.33;;
42714;SDS011;28351;51.480;5.706;2023-02-28T08:46:45;7.88;;;2.88;;
42714;SDS011;28351;51.480;5.706;2023-02-28T08:49:10;3.05;;;2.10;;
42714;SDS011;28351;51.480;5.706;2023-02-28T08:51:42;3.53;;;2.30;;
42714;SDS011;28351;51.480;5.706;2023-02-28T08:54:08;6.47;;;2.88;;
42714;SDS011;28351;51.480;5.706;2023-02-28T08:56:37;6.43;;;2.30;;
42714;SDS011;28351;51.480;5.706;2023-02-28T08:59:05;2.85;;;2.10;;
42714;SDS011;28351;51.480;5.706;2023-02-28T09:01:36;3.10;;;2.03;;
42714;SDS011;28351;51.480;5.706;2023-02-28T09:04:02;2.83;;;2.17;;
42714;SDS011;28351;51.480;5.706;2023-02-28T09:06:28;4.45;;;2.28;;
42714;SDS011;28351;51.480;5.706;2023-02-28T09:08:56;2.55;;;2.03;;
42714;SDS011;28351;51.480;5.706;2023-02-28T09:11:26;4.40;;;2.00;;
42714;SDS011;28351;51.480;5.706;2023-02-28T09:13:53;3.22;;;1.65;;
42714;SDS011;28351;51.480;5.706;2023-02-28T09:25:09;2.90;;;1.67;;
42714;SDS011;28351;51.480;5.706;2023-02-28T09:33:48;2.38;;;1.48;;
42714;SDS011;28351;51.480;5.706;2023-02-28T09:38:53;2.60;;;1.60;;
42714;SDS011;28351;51.480;5.706;2023-02-28T09:41:23;4.97;;;2.10;;
42714;SDS011;28351;51.480;5.706;2023-02-28T09:43:54;2.50;;;1.65;;
42714;SDS011;28351;51.480;5.706;2023-02-28T09:49:07;2.47;;;1.52;;
42714;SDS011;28351;51.480;5.706;2023-02-28T09:54:26;2.28;;;1.65;;
42714;SDS011;28351;51.480;5.706;2023-02-28T09:57:01;2.00;;;1.60;;
42714;SDS011;28351;51.480;5.706;2023-02-28T10:06:20;2.50;;;1.50;;
42714;SDS011;28351;51.480;5.706;2023-02-28T10:08:52;1.63;;;1.40;;
42714;SDS011;28351;51.480;5.706;2023-02-28T10:11:35;2.78;;;1.48;;
42714;SDS011;28351;51.480;5.706;2023-02-28T10:14:04;1.40;;;1.30;;
42714;SDS011;28351;51.480;5.706;2023-02-28T10:16:55;2.67;;;1.25;;
42714;SDS011;28351;51.480;5.706;2023-02-28T10:25:43;2.72;;;1.33;;
42714;SDS011;28351;51.480;5.706;2023-02-28T10:28:24;1.70;;;1.50;;
42714;SDS011;28351;51.480;5.706;2023-02-28T10:30:52;2.73;;;1.53;;
42714;SDS011;28351;51.480;5.706;2023-02-28T10:35:56;2.10;;;1.35;;
42714;SDS011;28351;51.480;5.706;2023-02-28T10:38:24;2.00;;;1.50;;
42714;SDS011;28351;51.480;5.706;2023-02-28T10:41:13;2.05;;;1.30;;
42714;SDS011;28351;51.480;5.706;2023-02-28T10:46:48;2.30;;;1.50;;
42714;SDS011;28351;51.480;5.706;2023-02-28T10:49:17;2.15;;;1.40;;
42714;SDS011;28351;51.480;5.706;2023-02-28T10:51:46;2.22;;;1.50;;
42714;SDS011;28351;51.480;5.706;2023-02-28T10:54:16;1.98;;;1.20;;
42714;SDS011;28351;51.480;5.706;2023-02-28T10:56:45;1.75;;;1.00;;
42714;SDS011;28351;51.480;5.706;2023-02-28T10:59:30;1.67;;;1.20;;
42714;SDS011;28351;51.480;5.706;2023-02-28T11:01:56;2.15;;;1.27;;
42714;SDS011;28351;51.480;5.706;2023-02-28T11:06:47;1.80;;;1.15;;
42714;SDS011;28351;51.480;5.706;2023-02-28T11:09:24;1.33;;;1.15;;
42714;SDS011;28351;51.480;5.706;2023-02-28T11:11:52;1.52;;;1.42;;
42714;SDS011;28351;51.480;5.706;2023-02-28T11:14:25;3.25;;;1.50;;
42714;SDS011;28351;51.480;5.706;2023-02-28T11:16:56;1.98;;;1.40;;
42714;SDS011;28351;51.480;5.706;2023-02-28T11:19:28;2.03;;;1.52;;
42714;SDS011;28351;51.480;5.706;2023-02-28T11:22:10;3.22;;;1.90;;
42714;SDS011;28351;51.480;5.706;2023-02-28T11:24:42;2.33;;;1.58;;
42714;SDS011;28351;51.480;5.706;2023-02-28T11:29:55;1.85;;;1.30;;
42714;SDS011;28351;51.480;5.706;2023-02-28T11:32:24;2.20;;;1.60;;
42714;SDS011;28351;51.480;5.706;2023-02-28T11:35:03;4.35;;;1.90;;
42714;SDS011;28351;51.480;5.706;2023-02-28T11:37:36;2.30;;;1.75;;
42714;SDS011;28351;51.480;5.706;2023-02-28T11:40:05;2.65;;;2.00;;
42714;SDS011;28351;51.480;5.706;2023-02-28T11:42:50;3.35;;;1.88;;
42714;SDS011;28351;51.480;5.706;2023-02-28T11:51:23;3.47;;;2.25;;
42714;SDS011;28351;51.480;5.706;2023-02-28T11:56:33;2.75;;;2.00;;
42714;SDS011;28351;51.480;5.706;2023-02-28T12:10:04;4.35;;;1.98;;
42714;SDS011;28351;51.480;5.706;2023-02-28T12:26:54;1.95;;;1.60;;
42714;SDS011;28351;51.480;5.706;2023-02-28T12:29:30;2.00;;;1.70;;
42714;SDS011;28351;51.480;5.706;2023-02-28T12:34:51;3.17;;;1.80;;
42714;SDS011;28351;51.480;5.706;2023-02-28T12:40:03;4.13;;;1.80;;
42714;SDS011;28351;51.480;5.706;2023-02-28T12:42:53;2.42;;;1.77;;
42714;SDS011;28351;51.480;5.706;2023-02-28T12:45:40;2.78;;;1.88;;
42714;SDS011;28351;51.480;5.706;2023-02-28T12:48:29;3.30;;;1.70;;
42714;SDS011;28351;51.480;5.706;2023-02-28T12:51:02;2.67;;;2.00;;
42714;SDS011;28351;51.480;5.706;2023-02-28T12:53:46;2.25;;;1.50;;
42714;SDS011;28351;51.480;5.706;2023-02-28T12:59:34;2.08;;;1.70;;
42714;SDS011;28351;51.480;5.706;2023-02-28T13:10:46;4.45;;;2.00;;
42714;SDS011;28351;51.480;5.706;2023-02-28T13:13:20;2.67;;;1.67;;
42714;SDS011;28351;51.480;5.706;2023-02-28T13:16:07;2.83;;;1.70;;
42714;SDS011;28351;51.480;5.706;2023-02-28T13:18:44;3.05;;;1.88;;
42714;SDS011;28351;51.480;5.706;2023-02-28T13:21:24;2.97;;;1.70;;
42714;SDS011;28351;51.480;5.706;2023-02-28T13:27:10;3.17;;;1.48;;
42714;SDS011;28351;51.480;5.706;2023-02-28T13:32:18;3.30;;;1.67;;
42714;SDS011;28351;51.480;5.706;2023-02-28T13:39:54;3.38;;;1.75;;
42714;SDS011;28351;51.480;5.706;2023-02-28T13:47:28;1.80;;;1.65;;
42714;SDS011;28351;51.480;5.706;2023-02-28T14:07:06;3.40;;;2.10;;
42714;SDS011;28351;51.480;5.706;2023-02-28T14:09:38;3.70;;;2.40;;
42714;SDS011;28351;51.480;5.706;2023-02-28T14:15:26;4.35;;;2.08;;
42714;SDS011;28351;51.480;5.706;2023-02-28T14:17:55;5.38;;;2.03;;
42714;SDS011;28351;51.480;5.706;2023-02-28T14:20:21;2.78;;;2.00;;
42714;SDS011;28351;51.480;5.706;2023-02-28T14:38:49;4.43;;;2.30;;
42714;SDS011;28351;51.480;5.706;2023-02-28T14:44:16;3.88;;;2.40;;
42714;SDS011;28351;51.480;5.706;2023-02-28T14:46:44;4.03;;;2.20;;
42714;SDS011;28351;51.480;5.706;2023-02-28T14:49:19;3.47;;;1.90;;
42714;SDS011;28351;51.480;5.706;2023-02-28T14:52:06;2.70;;;2.10;;
42714;SDS011;28351;51.480;5.706;2023-02-28T14:54:40;4.82;;;2.38;;
42714;SDS011;28351;51.480;5.706;2023-02-28T14:57:06;2.65;;;2.20;;
42714;SDS011;28351;51.480;5.706;2023-02-28T14:59:45;3.97;;;2.30;;
42714;SDS011;28351;51.480;5.706;2023-02-28T15:04:43;4.10;;;2.15;;
42714;SDS011;28351;51.480;5.706;2023-02-28T15:07:24;4.13;;;2.50;;
42714;SDS011;28351;51.480;5.706;2023-02-28T15:10:10;2.60;;;2.20;;
42714;SDS011;28351;51.480;5.706;2023-02-28T15:12:44;2.55;;;2.00;;
42714;SDS011;28351;51.480;5.706;2023-02-28T15:15:18;3.05;;;2.13;;
42714;SDS011;28351;51.480;5.706;2023-02-28T15:17:46;3.13;;;2.30;;
42714;SDS011;28351;51.480;5.706;2023-02-28T15:20:19;3.80;;;2.22;;
42714;SDS011;28351;51.480;5.706;2023-02-28T15:22:45;2.95;;;1.80;;
42714;SDS011;28351;51.480;5.706;2023-02-28T15:25:19;3.47;;;2.22;;
42714;SDS011;28351;51.480;5.706;2023-02-28T15:27:50;2.50;;;2.15;;
42714;SDS011;28351;51.480;5.706;2023-02-28T15:35:38;5.00;;;2.20;;
42714;SDS011;28351;51.480;5.706;2023-02-28T15:38:23;3.72;;;2.60;;
42714;SDS011;28351;51.480;5.706;2023-02-28T15:43:30;7.90;;;3.65;;
42714;SDS011;28351;51.480;5.706;2023-02-28T15:46:02;11.02;;;4.13;;
42714;SDS011;28351;51.480;5.706;2023-02-28T15:48:29;7.68;;;3.25;;
42714;SDS011;28351;51.480;5.706;2023-02-28T15:53:40;3.40;;;2.25;;
42714;SDS011;28351;51.480;5.706;2023-02-28T15:58:55;2.60;;;2.08;;
42714;SDS011;28351;51.480;5.706;2023-02-28T16:01:27;3.83;;;2.20;;
42714;SDS011;28351;51.480;5.706;2023-02-28T16:03:56;6.28;;;2.42;;
42714;SDS011;28351;51.480;5.706;2023-02-28T16:08:59;3.60;;;2.22;;
42714;SDS011;28351;51.480;5.706;2023-02-28T16:11:25;5.20;;;2.40;;
42714;SDS011;28351;51.480;5.706;2023-02-28T16:13:51;3.47;;;2.40;;
42714;SDS011;28351;51.480;5.706;2023-02-28T16:16:21;2.63;;;1.98;;
42714;SDS011;28351;51.480;5.706;2023-02-28T16:18:49;3.42;;;2.28;;
42714;SDS011;28351;51.480;5.706;2023-02-28T16:21:15;4.55;;;3.00;;
42714;SDS011;28351;51.480;5.706;2023-02-28T16:23:47;2.72;;;2.10;;
42714;SDS011;28351;51.480;5.706;2023-02-28T16:26:18;2.65;;;2.30;;
42714;SDS011;28351;51.480;5.706;2023-02-28T16:28:47;4.40;;;1.90;;
42714;SDS011;28351;51.480;5.706;2023-02-28T16:31:13;3.35;;;2.03;;
42714;SDS011;28351;51.480;5.706;2023-02-28T16:33:41;2.35;;;1.80;;
42714;SDS011;28351;51.480;5.706;2023-02-28T16:36:22;3.57;;;2.10;;
42714;SDS011;28351;51.480;5.706;2023-02-28T16:38:51;3.22;;;2.35;;
42714;SDS011;28351;51.480;5.706;2023-02-28T16:41:18;4.35;;;2.28;;
42714;SDS011;28351;51.480;5.706;2023-02-28T16:46:12;4.50;;;2.20;;
42714;SDS011;28351;51.480;5.706;2023-02-28T16:48:39;3.53;;;1.90;;
42714;SDS011;28351;51.480;5.706;2023-02-28T16:51:06;2.28;;;2.00;;
42714;SDS011;28351;51.480;5.706;2023-02-28T16:53:36;4.55;;;2.20;;
42714;SDS011;28351;51.480;5.706;2023-02-28T16:56:01;2.30;;;2.10;;
42714;SDS011;28351;51.480;5.706;2023-02-28T16:58:27;4.07;;;2.15;;
42714;SDS011;28351;51.480;5.706;2023-02-28T17:00:53;3.47;;;2.20;;
42714;SDS011;28351;51.480;5.706;2023-02-28T17:06:02;3.58;;;2.35;;
42714;SDS011;28351;51.480;5.706;2023-02-28T17:08:42;4.50;;;2.60;;
42714;SDS011;28351;51.480;5.706;2023-02-28T17:11:08;3.22;;;2.10;;
42714;SDS011;28351;51.480;5.706;2023-02-28T17:13:34;3.85;;;2.63;;
42714;SDS011;28351;51.480;5.706;2023-02-28T17:15:59;2.40;;;2.20;;
42714;SDS011;28351;51.480;5.706;2023-02-28T17:18:25;3.35;;;2.17;;
42714;SDS011;28351;51.480;5.706;2023-02-28T17:20:53;2.55;;;2.03;;
42714;SDS011;28351;51.480;5.706;2023-02-28T17:23:19;2.38;;;2.00;;
42714;SDS011;28351;51.480;5.706;2023-02-28T17:25:44;2.88;;;2.20;;
42714;SDS011;28351;51.480;5.706;2023-02-28T17:28:18;5.38;;;2.40;;
42714;SDS011;28351;51.480;5.706;2023-02-28T17:30:44;2.97;;;2.20;;
42714;SDS011;28351;51.480;5.706;2023-02-28T17:33:12;5.07;;;2.30;;
42714;SDS011;28351;51.480;5.706;2023-02-28T17:35:38;3.55;;;2.30;;
42714;SDS011;28351;51.480;5.706;2023-02-28T17:38:03;2.88;;;2.53;;
42714;SDS011;28351;51.480;5.706;2023-02-28T17:40:29;5.15;;;3.22;;
42714;SDS011;28351;51.480;5.706;2023-02-28T17:42:54;5.45;;;3.05;;
42714;SDS011;28351;51.480;5.706;2023-02-28T17:45:21;7.15;;;3.30;;
42714;SDS011;28351;51.480;5.706;2023-02-28T17:47:48;5.07;;;3.83;;
42714;SDS011;28351;51.480;5.706;2023-02-28T17:50:16;4.45;;;3.40;;
42714;SDS011;28351;51.480;5.706;2023-02-28T17:52:43;4.72;;;2.88;;
42714;SDS011;28351;51.480;5.706;2023-02-28T17:55:09;5.00;;;3.38;;
42714;SDS011;28351;51.480;5.706;2023-02-28T17:57:35;3.60;;;2.83;;
42714;SDS011;28351;51.480;5.706;2023-02-28T18:00:01;3.65;;;2.90;;
42714;SDS011;28351;51.480;5.706;2023-02-28T18:02:31;5.78;;;3.13;;
42714;SDS011;28351;51.480;5.706;2023-02-28T18:04:57;4.72;;;3.30;;
42714;SDS011;28351;51.480;5.706;2023-02-28T18:07:23;2.80;;;2.50;;
42714;SDS011;28351;51.480;5.706;2023-02-28T18:09:49;3.97;;;2.78;;
42714;SDS011;28351;51.480;5.706;2023-02-28T18:12:15;4.30;;;2.88;;
42714;SDS011;28351;51.480;5.706;2023-02-28T18:14:40;4.30;;;2.60;;
42714;SDS011;28351;51.480;5.706;2023-02-28T18:17:08;4.22;;;2.60;;
42714;SDS011;28351;51.480;5.706;2023-02-28T18:19:37;4.18;;;2.75;;
42714;SDS011;28351;51.480;5.706;2023-02-28T18:22:03;5.50;;;2.83;;
42714;SDS011;28351;51.480;5.706;2023-02-28T18:24:31;4.63;;;2.63;;
42714;SDS011;28351;51.480;5.706;2023-02-28T18:26:56;5.35;;;3.65;;
42714;SDS011;28351;51.480;5.706;2023-02-28T18:29:25;5.55;;;3.80;;
42714;SDS011;28351;51.480;5.706;2023-02-28T18:31:52;4.32;;;3.10;;
42714;SDS011;28351;51.480;5.706;2023-02-28T18:34:19;5.72;;;3.50;;
42714;SDS011;28351;51.480;5.706;2023-02-28T18:36:45;6.50;;;2.90;;
42714;SDS011;28351;51.480;5.706;2023-02-28T18:39:16;5.63;;;3.35;;
42714;SDS011;28351;51.480;5.706;2023-02-28T18:41:42;5.05;;;3.42;;
42714;SDS011;28351;51.480;5.706;2023-02-28T18:44:07;4.50;;;2.70;;
42714;SDS011;28351;51.480;5.706;2023-02-28T18:46:33;3.85;;;2.78;;
42714;SDS011;28351;51.480;5.706;2023-02-28T18:48:59;6.40;;;3.28;;
42714;SDS011;28351;51.480;5.706;2023-02-28T18:51:25;6.00;;;3.38;;
42714;SDS011;28351;51.480;5.706;2023-02-28T18:53:58;12.80;;;7.22;;
42714;SDS011;28351;51.480;5.706;2023-02-28T18:56:24;20.70;;;8.52;;
42714;SDS011;28351;51.480;5.706;2023-02-28T18:58:50;5.22;;;3.85;;
42714;SDS011;28351;51.480;5.706;2023-02-28T19:03:43;4.53;;;2.78;;
42714;SDS011;28351;51.480;5.706;2023-02-28T19:06:09;5.32;;;3.30;;
42714;SDS011;28351;51.480;5.706;2023-02-28T19:08:35;4.55;;;2.78;;
42714;SDS011;28351;51.480;5.706;2023-02-28T19:11:11;8.95;;;4.25;;
42714;SDS011;28351;51.480;5.706;2023-02-28T19:13:38;7.67;;;4.60;;
42714;SDS011;28351;51.480;5.706;2023-02-28T19:16:05;8.45;;;3.60;;
42714;SDS011;28351;51.480;5.706;2023-02-28T19:18:32;5.82;;;3.17;;